sensor_id;sensor_type;location;lat;lon;timestamp;pressure;altitude;pressure_sealevel;temperature;humidity
64862;BME280;62652;42.274;-71.436;2023-01-28T00:00:00;101410.0;;;0.777777777777777;78.5
64862;BME280;62652;42.274;-71.436;2023-01-28T00:01:03;101410.0;;;0.8888888888888897;78.2
64862;BME280;62652;42.274;-71.436;2023-01-28T00:02:01;101410.0;;;0.777777777777777;79.3
64862;BME280;62652;42.274;-71.436;2023-01-28T00:03:00;101400.0;;;0.7222222222222207;78.3
64862;BME280;62652;42.274;-71.436;2023-01-28T00:04:01;101410.0;;;0.7222222222222207;78.4
64862;BME280;62652;42.274;-71.436;2023-01-28T00:05:01;101410.0;;;0.7222222222222207;79.0
64862;BME280;62652;42.274;-71.436;2023-01-28T00:06:02;101410.0;;;0.6111111111111119;79.4
64862;BME280;62652;42.274;-71.436;2023-01-28T00:07:00;101410.0;;;0.6111111111111119;79.3
64862;BME280;62652;42.274;-71.436;2023-01-28T00:08:01;101410.0;;;0.6111111111111119;79.5
64862;BME280;62652;42.274;-71.436;2023-01-28T00:09:00;101410.0;;;0.6111111111111119;79.5
64862;BME280;62652;42.274;-71.436;2023-01-28T00:10:00;101410.0;;;0.7222222222222207;79.9
64862;BME280;62652;42.274;-71.436;2023-01-28T00:11:02;101410.0;;;0.7222222222222207;81.0
64862;BME280;62652;42.274;-71.436;2023-01-28T00:12:01;101410.0;;;0.777777777777777;81.6
64862;BME280;62652;42.274;-71.436;2023-01-28T00:13:01;101410.0;;;0.6111111111111119;83.3
64862;BME280;62652;42.274;-71.436;2023-01-28T00:14:01;101410.0;;;0.7222222222222207;83.9
64862;BME280;62652;42.274;-71.436;2023-01-28T00:15:01;101410.0;;;0.6111111111111119;84.7
64862;BME280;62652;42.274;-71.436;2023-01-28T00:16:03;101410.0;;;0.6111111111111119;84.2
64862;BME280;62652;42.274;-71.436;2023-01-28T00:17:03;101410.0;;;0.6111111111111119;84.3
64862;BME280;62652;42.274;-71.436;2023-01-28T00:18:00;101400.0;;;0.777777777777777;83.6
64862;BME280;62652;42.274;-71.436;2023-01-28T00:19:01;101410.0;;;0.8888888888888897;83.0
64862;BME280;62652;42.274;-71.436;2023-01-28T00:20:01;101420.0;;;0.9999999999999984;83.0
64862;BME280;62652;42.274;-71.436;2023-01-28T00:21:03;101420.0;;;0.9999999999999984;83.3
64862;BME280;62652;42.274;-71.436;2023-01-28T00:22:01;101420.0;;;0.8888888888888897;84.1
64862;BME280;62652;42.274;-71.436;2023-01-28T00:23:01;101410.0;;;0.8888888888888897;84.6
64862;BME280;62652;42.274;-71.436;2023-01-28T00:24:01;101410.0;;;0.777777777777777;85.2
64862;BME280;62652;42.274;-71.436;2023-01-28T00:25:00;101420.0;;;0.7222222222222207;86.2
64862;BME280;62652;42.274;-71.436;2023-01-28T00:26:04;101420.0;;;0.777777777777777;85.5
64862;BME280;62652;42.274;-71.436;2023-01-28T00:27:00;101420.0;;;0.8888888888888897;84.9
64862;BME280;62652;42.274;-71.436;2023-01-28T00:28:00;101420.0;;;0.777777777777777;85.2
64862;BME280;62652;42.274;-71.436;2023-01-28T00:29:01;101420.0;;;0.7222222222222207;86.3
64862;BME280;62652;42.274;-71.436;2023-01-28T00:30:00;101410.0;;;0.7222222222222207;88.0
64862;BME280;62652;42.274;-71.436;2023-01-28T00:31:06;101420.0;;;0.777777777777777;87.9
64862;BME280;62652;42.274;-71.436;2023-01-28T00:32:00;101420.0;;;0.777777777777777;89.0
64862;BME280;62652;42.274;-71.436;2023-01-28T00:33:00;101420.0;;;0.777777777777777;88.9
64862;BME280;62652;42.274;-71.436;2023-01-28T00:34:00;101420.0;;;0.777777777777777;88.4
64862;BME280;62652;42.274;-71.436;2023-01-28T00:35:01;101430.0;;;0.777777777777777;87.8
64862;BME280;62652;42.274;-71.436;2023-01-28T00:36:02;101430.0;;;0.777777777777777;88.8
64862;BME280;62652;42.274;-71.436;2023-01-28T00:37:01;101430.0;;;0.777777777777777;90.9
64862;BME280;62652;42.274;-71.436;2023-01-28T00:38:01;101430.0;;;0.777777777777777;92.0
64862;BME280;62652;42.274;-71.436;2023-01-28T00:39:00;101430.0;;;0.777777777777777;89.3
64862;BME280;62652;42.274;-71.436;2023-01-28T00:40:00;101430.0;;;0.777777777777777;88.0
64862;BME280;62652;42.274;-71.436;2023-01-28T00:41:06;101430.0;;;0.777777777777777;86.3
64862;BME280;62652;42.274;-71.436;2023-01-28T00:42:01;101440.0;;;0.777777777777777;86.0
64862;BME280;62652;42.274;-71.436;2023-01-28T00:43:01;101440.0;;;0.8888888888888897;87.5
64862;BME280;62652;42.274;-71.436;2023-01-28T00:44:00;101440.0;;;0.9999999999999984;88.3
64862;BME280;62652;42.274;-71.436;2023-01-28T00:45:01;101440.0;;;1.2222222222222239;85.7
64862;BME280;62652;42.274;-71.436;2023-01-28T00:46:01;101440.0;;;1.2777777777777761;85.0
64862;BME280;62652;42.274;-71.436;2023-01-28T00:47:01;101440.0;;;1.3888888888888888;84.0
64862;BME280;62652;42.274;-71.436;2023-01-28T00:48:01;101440.0;;;1.2777777777777761;83.6
64862;BME280;62652;42.274;-71.436;2023-01-28T00:49:01;101440.0;;;1.1111111111111112;85.2
64862;BME280;62652;42.274;-71.436;2023-01-28T00:50:00;101440.0;;;1.1111111111111112;85.3
64862;BME280;62652;42.274;-71.436;2023-01-28T00:51:01;101440.0;;;1.1111111111111112;86.9
64862;BME280;62652;42.274;-71.436;2023-01-28T00:52:01;101440.0;;;1.1111111111111112;87.2
64862;BME280;62652;42.274;-71.436;2023-01-28T00:53:01;101440.0;;;0.9999999999999984;87.3
64862;BME280;62652;42.274;-71.436;2023-01-28T00:54:01;101430.0;;;0.8888888888888897;88.0
64862;BME280;62652;42.274;-71.436;2023-01-28T00:55:01;101430.0;;;0.8888888888888897;87.8
64862;BME280;62652;42.274;-71.436;2023-01-28T00:56:01;101430.0;;;0.8888888888888897;88.3
64862;BME280;62652;42.274;-71.436;2023-01-28T00:57:01;101440.0;;;0.8888888888888897;88.8
64862;BME280;62652;42.274;-71.436;2023-01-28T00:58:01;101440.0;;;0.8888888888888897;88.2
64862;BME280;62652;42.274;-71.436;2023-01-28T00:59:01;101430.0;;;0.777777777777777;88.2
64862;BME280;62652;42.274;-71.436;2023-01-28T01:00:00;101430.0;;;0.777777777777777;88.3
64862;BME280;62652;42.274;-71.436;2023-01-28T01:01:06;101430.0;;;0.8888888888888897;87.5
64862;BME280;62652;42.274;-71.436;2023-01-28T01:02:00;101430.0;;;0.8888888888888897;87.7
64862;BME280;62652;42.274;-71.436;2023-01-28T01:03:01;101430.0;;;0.8888888888888897;85.8
64862;BME280;62652;42.274;-71.436;2023-01-28T01:04:01;101430.0;;;0.777777777777777;86.7
64862;BME280;62652;42.274;-71.436;2023-01-28T01:05:00;101430.0;;;0.7222222222222207;86.5
64862;BME280;62652;42.274;-71.436;2023-01-28T01:06:01;101440.0;;;0.6111111111111119;86.5
64862;BME280;62652;42.274;-71.436;2023-01-28T01:07:00;101430.0;;;0.6111111111111119;85.3
64862;BME280;62652;42.274;-71.436;2023-01-28T01:08:01;101440.0;;;0.6111111111111119;86.6
64862;BME280;62652;42.274;-71.436;2023-01-28T01:09:02;101440.0;;;0.7222222222222207;84.5
64862;BME280;62652;42.274;-71.436;2023-01-28T01:10:01;101440.0;;;0.777777777777777;85.3
64862;BME280;62652;42.274;-71.436;2023-01-28T01:11:01;101440.0;;;0.777777777777777;85.7
64862;BME280;62652;42.274;-71.436;2023-01-28T01:12:00;101430.0;;;0.7222222222222207;86.0
64862;BME280;62652;42.274;-71.436;2023-01-28T01:13:00;101440.0;;;0.7222222222222207;85.8
64862;BME280;62652;42.274;-71.436;2023-01-28T01:14:01;101430.0;;;0.6111111111111119;84.2
64862;BME280;62652;42.274;-71.436;2023-01-28T01:15:01;101430.0;;;0.7222222222222207;82.5
64862;BME280;62652;42.274;-71.436;2023-01-28T01:16:03;101440.0;;;0.7222222222222207;83.2
64862;BME280;62652;42.274;-71.436;2023-01-28T01:17:00;101440.0;;;0.777777777777777;83.6
64862;BME280;62652;42.274;-71.436;2023-01-28T01:18:01;101440.0;;;0.7222222222222207;84.7
64862;BME280;62652;42.274;-71.436;2023-01-28T01:19:02;101440.0;;;0.7222222222222207;84.1
64862;BME280;62652;42.274;-71.436;2023-01-28T01:20:00;101440.0;;;0.7222222222222207;83.2
64862;BME280;62652;42.274;-71.436;2023-01-28T01:21:02;101440.0;;;0.7222222222222207;80.9
64862;BME280;62652;42.274;-71.436;2023-01-28T01:22:00;101440.0;;;0.7222222222222207;79.7
64862;BME280;62652;42.274;-71.436;2023-01-28T01:23:00;101440.0;;;0.777777777777777;79.5
64862;BME280;62652;42.274;-71.436;2023-01-28T01:24:00;101440.0;;;0.777777777777777;80.2
64862;BME280;62652;42.274;-71.436;2023-01-28T01:25:02;101440.0;;;0.7222222222222207;81.3
64862;BME280;62652;42.274;-71.436;2023-01-28T01:26:01;101440.0;;;0.7222222222222207;82.0
64862;BME280;62652;42.274;-71.436;2023-01-28T01:27:01;101440.0;;;0.7222222222222207;82.9
64862;BME280;62652;42.274;-71.436;2023-01-28T01:28:01;101440.0;;;0.777777777777777;82.6
64862;BME280;62652;42.274;-71.436;2023-01-28T01:29:00;101440.0;;;0.7222222222222207;82.4
64862;BME280;62652;42.274;-71.436;2023-01-28T01:30:01;101450.0;;;0.7222222222222207;82.0
64862;BME280;62652;42.274;-71.436;2023-01-28T01:31:03;101450.0;;;0.7222222222222207;81.5
64862;BME280;62652;42.274;-71.436;2023-01-28T01:32:01;101450.0;;;0.7222222222222207;82.2
64862;BME280;62652;42.274;-71.436;2023-01-28T01:33:00;101440.0;;;0.777777777777777;82.0
64862;BME280;62652;42.274;-71.436;2023-01-28T01:34:00;101450.0;;;0.8888888888888897;81.2
64862;BME280;62652;42.274;-71.436;2023-01-28T01:35:01;101440.0;;;0.8888888888888897;80.1
64862;BME280;62652;42.274;-71.436;2023-01-28T01:36:01;101450.0;;;0.8888888888888897;79.8
64862;BME280;62652;42.274;-71.436;2023-01-28T01:37:00;101440.0;;;0.777777777777777;79.6
64862;BME280;62652;42.274;-71.436;2023-01-28T01:38:01;101440.0;;;0.777777777777777;80.6
64862;BME280;62652;42.274;-71.436;2023-01-28T01:39:01;101440.0;;;0.777777777777777;81.0
64862;BME280;62652;42.274;-71.436;2023-01-28T01:40:01;101440.0;;;0.777777777777777;81.3
64862;BME280;62652;42.274;-71.436;2023-01-28T01:41:02;101440.0;;;0.777777777777777;82.3
64862;BME280;62652;42.274;-71.436;2023-01-28T01:42:01;101440.0;;;0.7222222222222207;83.2
64862;BME280;62652;42.274;-71.436;2023-01-28T01:43:01;101440.0;;;0.7222222222222207;85.1
64862;BME280;62652;42.274;-71.436;2023-01-28T01:44:02;101450.0;;;0.6111111111111119;86.5
64862;BME280;62652;42.274;-71.436;2023-01-28T01:45:03;101450.0;;;0.7222222222222207;86.7
64862;BME280;62652;42.274;-71.436;2023-01-28T01:46:00;101450.0;;;0.7222222222222207;86.3
64862;BME280;62652;42.274;-71.436;2023-01-28T01:47:01;101450.0;;;0.7222222222222207;85.8
64862;BME280;62652;42.274;-71.436;2023-01-28T01:48:04;101450.0;;;0.7222222222222207;84.8
64862;BME280;62652;42.274;-71.436;2023-01-28T01:49:05;101460.0;;;0.7222222222222207;85.1
64862;BME280;62652;42.274;-71.436;2023-01-28T01:50:05;101450.0;;;0.7222222222222207;85.6
64862;BME280;62652;42.274;-71.436;2023-01-28T01:51:03;101450.0;;;0.7222222222222207;86.1
64862;BME280;62652;42.274;-71.436;2023-01-28T01:52:07;101460.0;;;0.4999999999999992;87.2
64862;BME280;62652;42.274;-71.436;2023-01-28T01:53:05;101460.0;;;0.38888888888889045;87.1
64862;BME280;62652;42.274;-71.436;2023-01-28T01:54:01;101460.0;;;0.38888888888889045;87.4
64862;BME280;62652;42.274;-71.436;2023-01-28T01:55:03;101450.0;;;0.38888888888889045;88.0
64862;BME280;62652;42.274;-71.436;2023-01-28T01:56:03;101460.0;;;0.38888888888889045;88.6
64862;BME280;62652;42.274;-71.436;2023-01-28T01:57:02;101450.0;;;0.38888888888889045;87.8
64862;BME280;62652;42.274;-71.436;2023-01-28T01:58:04;101450.0;;;0.4999999999999992;87.4
64862;BME280;62652;42.274;-71.436;2023-01-28T01:59:01;101450.0;;;0.4999999999999992;87.6
64862;BME280;62652;42.274;-71.436;2023-01-28T02:00:03;101450.0;;;0.38888888888889045;87.8
64862;BME280;62652;42.274;-71.436;2023-01-28T02:01:01;101450.0;;;0.4999999999999992;88.5
64862;BME280;62652;42.274;-71.436;2023-01-28T02:02:02;101450.0;;;0.4999999999999992;88.3
64862;BME280;62652;42.274;-71.436;2023-01-28T02:03:01;101450.0;;;0.4999999999999992;88.5
64862;BME280;62652;42.274;-71.436;2023-01-28T02:04:04;101450.0;;;0.38888888888889045;89.6
64862;BME280;62652;42.274;-71.436;2023-01-28T02:05:01;101450.0;;;0.38888888888889045;90.1
64862;BME280;62652;42.274;-71.436;2023-01-28T02:06:02;101450.0;;;0.2777777777777778;89.8
64862;BME280;62652;42.274;-71.436;2023-01-28T02:07:01;101450.0;;;0.2777777777777778;90.2
64862;BME280;62652;42.274;-71.436;2023-01-28T02:08:01;101450.0;;;0.22222222222222143;91.0
64862;BME280;62652;42.274;-71.436;2023-01-28T02:09:01;101440.0;;;0.22222222222222143;92.0
64862;BME280;62652;42.274;-71.436;2023-01-28T02:10:01;101440.0;;;0.11111111111111269;93.1
64862;BME280;62652;42.274;-71.436;2023-01-28T02:11:03;101440.0;;;0.11111111111111269;93.8
64862;BME280;62652;42.274;-71.436;2023-01-28T02:12:05;101440.0;;;0.11111111111111269;94.1
64862;BME280;62652;42.274;-71.436;2023-01-28T02:13:01;101440.0;;;-0.11111111111111072;94.7
64862;BME280;62652;42.274;-71.436;2023-01-28T02:14:04;101440.0;;;-0.11111111111111072;95.6
64862;BME280;62652;42.274;-71.436;2023-01-28T02:15:03;101440.0;;;-0.11111111111111072;95.2
64862;BME280;62652;42.274;-71.436;2023-01-28T02:16:02;101450.0;;;0.0;94.1
64862;BME280;62652;42.274;-71.436;2023-01-28T02:17:01;101450.0;;;0.0;92.8
64862;BME280;62652;42.274;-71.436;2023-01-28T02:18:01;101450.0;;;-0.11111111111111072;93.3
64862;BME280;62652;42.274;-71.436;2023-01-28T02:19:00;101450.0;;;-0.22222222222222143;94.2
64862;BME280;62652;42.274;-71.436;2023-01-28T02:20:03;101450.0;;;-0.2777777777777778;94.1
64862;BME280;62652;42.274;-71.436;2023-01-28T02:21:17;101450.0;;;-0.22222222222222143;93.2
64862;BME280;62652;42.274;-71.436;2023-01-28T02:22:09;101450.0;;;0.0;92.5
64862;BME280;62652;42.274;-71.436;2023-01-28T02:24:16;101460.0;;;-0.22222222222222143;92.2
64862;BME280;62652;42.274;-71.436;2023-01-28T02:25:19;101460.0;;;-0.22222222222222143;92.4
64862;BME280;62652;42.274;-71.436;2023-01-28T02:26:14;101460.0;;;-0.11111111111111072;91.8
64862;BME280;62652;42.274;-71.436;2023-01-28T02:27:16;101470.0;;;-0.22222222222222143;91.9
64862;BME280;62652;42.274;-71.436;2023-01-28T02:28:12;101470.0;;;-0.22222222222222143;92.4
64862;BME280;62652;42.274;-71.436;2023-01-28T02:29:05;101470.0;;;-0.22222222222222143;92.6
64862;BME280;62652;42.274;-71.436;2023-01-28T02:30:06;101470.0;;;-0.22222222222222143;92.7
64862;BME280;62652;42.274;-71.436;2023-01-28T02:31:08;101470.0;;;-0.22222222222222143;92.8
64862;BME280;62652;42.274;-71.436;2023-01-28T02:32:04;101470.0;;;-0.22222222222222143;92.6
64862;BME280;62652;42.274;-71.436;2023-01-28T02:33:04;101470.0;;;-0.22222222222222143;93.1
64862;BME280;62652;42.274;-71.436;2023-01-28T02:34:07;101470.0;;;-0.11111111111111072;93.4
64862;BME280;62652;42.274;-71.436;2023-01-28T02:35:04;101470.0;;;-0.22222222222222143;94.8
64862;BME280;62652;42.274;-71.436;2023-01-28T02:36:11;101470.0;;;-0.22222222222222143;95.6
64862;BME280;62652;42.274;-71.436;2023-01-28T02:37:05;101470.0;;;-0.22222222222222143;96.2
64862;BME280;62652;42.274;-71.436;2023-01-28T02:38:06;101470.0;;;-0.11111111111111072;95.8
64862;BME280;62652;42.274;-71.436;2023-01-28T02:39:06;101470.0;;;-0.11111111111111072;94.5
64862;BME280;62652;42.274;-71.436;2023-01-28T02:40:07;101460.0;;;-0.11111111111111072;95.1
64862;BME280;62652;42.274;-71.436;2023-01-28T02:41:05;101470.0;;;-0.22222222222222143;95.7
64862;BME280;62652;42.274;-71.436;2023-01-28T02:42:04;101470.0;;;-0.22222222222222143;96.1
64862;BME280;62652;42.274;-71.436;2023-01-28T02:43:01;101470.0;;;-0.22222222222222143;96.5
64862;BME280;62652;42.274;-71.436;2023-01-28T02:44:01;101470.0;;;-0.2777777777777778;96.7
64862;BME280;62652;42.274;-71.436;2023-01-28T02:45:01;101470.0;;;-0.3888888888888885;96.9
64862;BME280;62652;42.274;-71.436;2023-01-28T02:46:09;101470.0;;;-0.3888888888888885;97.5
64862;BME280;62652;42.274;-71.436;2023-01-28T02:47:01;101470.0;;;-0.2777777777777778;98.1
64862;BME280;62652;42.274;-71.436;2023-01-28T02:48:00;101470.0;;;-0.2777777777777778;98.7
64862;BME280;62652;42.274;-71.436;2023-01-28T02:49:04;101470.0;;;-0.2777777777777778;98.8
64862;BME280;62652;42.274;-71.436;2023-01-28T02:50:03;101480.0;;;-0.22222222222222143;98.3
64862;BME280;62652;42.274;-71.436;2023-01-28T02:51:06;101480.0;;;-0.2777777777777778;99.1
64862;BME280;62652;42.274;-71.436;2023-01-28T02:52:12;101480.0;;;-0.2777777777777778;99.2
64862;BME280;62652;42.274;-71.436;2023-01-28T02:53:08;101480.0;;;-0.3888888888888885;100.0
64862;BME280;62652;42.274;-71.436;2023-01-28T02:54:09;101470.0;;;-0.3888888888888885;100.0
64862;BME280;62652;42.274;-71.436;2023-01-28T02:55:08;101470.0;;;-0.3888888888888885;99.9
64862;BME280;62652;42.274;-71.436;2023-01-28T02:56:09;101470.0;;;-0.2777777777777778;99.6
64862;BME280;62652;42.274;-71.436;2023-01-28T02:57:08;101480.0;;;-0.2777777777777778;99.6
64862;BME280;62652;42.274;-71.436;2023-01-28T02:58:07;101480.0;;;-0.2777777777777778;99.6
64862;BME280;62652;42.274;-71.436;2023-01-28T02:59:09;101480.0;;;-0.2777777777777778;100.0
64862;BME280;62652;42.274;-71.436;2023-01-28T03:00:09;101480.0;;;-0.2777777777777778;100.0
64862;BME280;62652;42.274;-71.436;2023-01-28T03:01:08;101480.0;;;-0.3888888888888885;100.0
64862;BME280;62652;42.274;-71.436;2023-01-28T03:02:09;101480.0;;;-0.2777777777777778;100.0
64862;BME280;62652;42.274;-71.436;2023-01-28T03:03:10;101480.0;;;-0.3888888888888885;100.0
64862;BME280;62652;42.274;-71.436;2023-01-28T03:04:06;101480.0;;;-0.3888888888888885;100.0
64862;BME280;62652;42.274;-71.436;2023-01-28T03:05:06;101490.0;;;-0.4999999999999992;100.0
64862;BME280;62652;42.274;-71.436;2023-01-28T03:06:05;101490.0;;;-0.3888888888888885;100.0
64862;BME280;62652;42.274;-71.436;2023-01-28T03:07:05;101490.0;;;-0.3888888888888885;100.0
64862;BME280;62652;42.274;-71.436;2023-01-28T03:08:02;101490.0;;;-0.3888888888888885;100.0
64862;BME280;62652;42.274;-71.436;2023-01-28T03:09:04;101480.0;;;-0.3888888888888885;100.0
64862;BME280;62652;42.274;-71.436;2023-01-28T03:10:03;101490.0;;;-0.3888888888888885;100.0
64862;BME280;62652;42.274;-71.436;2023-01-28T03:11:00;101490.0;;;-0.4999999999999992;100.0
64862;BME280;62652;42.274;-71.436;2023-01-28T03:12:04;101490.0;;;-0.4999999999999992;100.0
64862;BME280;62652;42.274;-71.436;2023-01-28T03:13:01;101490.0;;;-0.4999999999999992;100.0
64862;BME280;62652;42.274;-71.436;2023-01-28T03:14:01;101500.0;;;-0.4999999999999992;100.0
64862;BME280;62652;42.274;-71.436;2023-01-28T03:15:04;101500.0;;;-0.3888888888888885;100.0
64862;BME280;62652;42.274;-71.436;2023-01-28T03:16:00;101500.0;;;-0.2777777777777778;100.0
64862;BME280;62652;42.274;-71.436;2023-01-28T03:17:02;101500.0;;;-0.22222222222222143;100.0
64862;BME280;62652;42.274;-71.436;2023-01-28T03:18:03;101500.0;;;-0.22222222222222143;100.0
64862;BME280;62652;42.274;-71.436;2023-01-28T03:19:01;101500.0;;;-0.2777777777777778;100.0
64862;BME280;62652;42.274;-71.436;2023-01-28T03:20:01;101500.0;;;-0.2777777777777778;100.0
64862;BME280;62652;42.274;-71.436;2023-01-28T03:21:04;101500.0;;;-0.2777777777777778;100.0
64862;BME280;62652;42.274;-71.436;2023-01-28T03:22:01;101500.0;;;-0.22222222222222143;100.0
64862;BME280;62652;42.274;-71.436;2023-01-28T03:23:07;101500.0;;;-0.2777777777777778;100.0
64862;BME280;62652;42.274;-71.436;2023-01-28T03:24:04;101500.0;;;-0.2777777777777778;99.3
64862;BME280;62652;42.274;-71.436;2023-01-28T03:25:01;101510.0;;;-0.2777777777777778;98.3
64862;BME280;62652;42.274;-71.436;2023-01-28T03:26:03;101500.0;;;-0.2777777777777778;96.3
64862;BME280;62652;42.274;-71.436;2023-01-28T03:27:05;101500.0;;;-0.22222222222222143;97.4
64862;BME280;62652;42.274;-71.436;2023-01-28T03:28:04;101500.0;;;-0.22222222222222143;96.5
64862;BME280;62652;42.274;-71.436;2023-01-28T03:29:05;101500.0;;;-0.22222222222222143;96.4
64862;BME280;62652;42.274;-71.436;2023-01-28T03:30:04;101500.0;;;-0.22222222222222143;96.1
64862;BME280;62652;42.274;-71.436;2023-01-28T03:31:04;101500.0;;;-0.22222222222222143;95.5
64862;BME280;62652;42.274;-71.436;2023-01-28T03:32:01;101500.0;;;-0.22222222222222143;95.3
64862;BME280;62652;42.274;-71.436;2023-01-28T03:33:02;101500.0;;;-0.2777777777777778;95.7
64862;BME280;62652;42.274;-71.436;2023-01-28T03:34:02;101490.0;;;-0.2777777777777778;96.1
64862;BME280;62652;42.274;-71.436;2023-01-28T03:35:01;101500.0;;;-0.2777777777777778;96.3
64862;BME280;62652;42.274;-71.436;2023-01-28T03:36:01;101500.0;;;-0.2777777777777778;96.7
64862;BME280;62652;42.274;-71.436;2023-01-28T03:37:00;101500.0;;;-0.2777777777777778;96.8
64862;BME280;62652;42.274;-71.436;2023-01-28T03:38:01;101500.0;;;-0.3888888888888885;97.6
64862;BME280;62652;42.274;-71.436;2023-01-28T03:39:01;101500.0;;;-0.4999999999999992;98.2
64862;BME280;62652;42.274;-71.436;2023-01-28T03:40:03;101500.0;;;-0.4999999999999992;98.8
64862;BME280;62652;42.274;-71.436;2023-01-28T03:41:02;101490.0;;;-0.3888888888888885;98.7
64862;BME280;62652;42.274;-71.436;2023-01-28T03:42:03;101490.0;;;-0.3888888888888885;98.4
64862;BME280;62652;42.274;-71.436;2023-01-28T03:43:00;101490.0;;;-0.3888888888888885;98.3
64862;BME280;62652;42.274;-71.436;2023-01-28T03:44:01;101480.0;;;-0.3888888888888885;98.3
64862;BME280;62652;42.274;-71.436;2023-01-28T03:45:01;101470.0;;;-0.3888888888888885;98.4
64862;BME280;62652;42.274;-71.436;2023-01-28T03:46:01;101470.0;;;-0.3888888888888885;98.8
64862;BME280;62652;42.274;-71.436;2023-01-28T03:47:00;101470.0;;;-0.3888888888888885;99.2
64862;BME280;62652;42.274;-71.436;2023-01-28T03:48:00;101470.0;;;-0.4999999999999992;99.6
64862;BME280;62652;42.274;-71.436;2023-01-28T03:49:00;101470.0;;;-0.6111111111111119;99.7
64862;BME280;62652;42.274;-71.436;2023-01-28T03:50:01;101460.0;;;-0.6111111111111119;100.0
64862;BME280;62652;42.274;-71.436;2023-01-28T03:51:01;101460.0;;;-0.6111111111111119;100.0
64862;BME280;62652;42.274;-71.436;2023-01-28T03:52:00;101460.0;;;-0.6111111111111119;100.0
64862;BME280;62652;42.274;-71.436;2023-01-28T03:53:01;101450.0;;;-0.7222222222222227;100.0
64862;BME280;62652;42.274;-71.436;2023-01-28T03:54:00;101450.0;;;-0.7222222222222227;100.0
64862;BME280;62652;42.274;-71.436;2023-01-28T03:55:00;101460.0;;;-0.7222222222222227;100.0
64862;BME280;62652;42.274;-71.436;2023-01-28T03:56:01;101460.0;;;-0.777777777777777;100.0
64862;BME280;62652;42.274;-71.436;2023-01-28T03:57:01;101460.0;;;-0.777777777777777;100.0
64862;BME280;62652;42.274;-71.436;2023-01-28T03:58:01;101460.0;;;-0.777777777777777;100.0
64862;BME280;62652;42.274;-71.436;2023-01-28T03:59:01;101460.0;;;-0.777777777777777;100.0
64862;BME280;62652;42.274;-71.436;2023-01-28T04:00:01;101460.0;;;-0.777777777777777;100.0
64862;BME280;62652;42.274;-71.436;2023-01-28T04:01:01;101460.0;;;-0.8888888888888897;100.0
64862;BME280;62652;42.274;-71.436;2023-01-28T04:02:00;101460.0;;;-0.8888888888888897;100.0
64862;BME280;62652;42.274;-71.436;2023-01-28T04:03:01;101460.0;;;-0.8888888888888897;100.0
64862;BME280;62652;42.274;-71.436;2023-01-28T04:04:00;101460.0;;;-1.0000000000000004;100.0
64862;BME280;62652;42.274;-71.436;2023-01-28T04:05:00;101460.0;;;-0.8888888888888897;100.0
64862;BME280;62652;42.274;-71.436;2023-01-28T04:06:02;101450.0;;;-0.8888888888888897;100.0
64862;BME280;62652;42.274;-71.436;2023-01-28T04:07:00;101460.0;;;-0.8888888888888897;100.0
64862;BME280;62652;42.274;-71.436;2023-01-28T04:08:01;101450.0;;;-0.8888888888888897;100.0
64862;BME280;62652;42.274;-71.436;2023-01-28T04:09:01;101450.0;;;-1.0000000000000004;100.0
64862;BME280;62652;42.274;-71.436;2023-01-28T04:10:00;101450.0;;;-1.0000000000000004;100.0
64862;BME280;62652;42.274;-71.436;2023-01-28T04:11:01;101450.0;;;-1.0000000000000004;100.0
64862;BME280;62652;42.274;-71.436;2023-01-28T04:12:02;101450.0;;;-1.0000000000000004;100.0
64862;BME280;62652;42.274;-71.436;2023-01-28T04:13:00;101450.0;;;-1.1111111111111112;100.0
64862;BME280;62652;42.274;-71.436;2023-01-28T04:14:00;101450.0;;;-1.1111111111111112;100.0
64862;BME280;62652;42.274;-71.436;2023-01-28T04:15:00;101450.0;;;-1.1111111111111112;100.0
64862;BME280;62652;42.274;-71.436;2023-01-28T04:16:01;101450.0;;;-1.1111111111111112;100.0
64862;BME280;62652;42.274;-71.436;2023-01-28T04:17:00;101450.0;;;-1.2222222222222219;100.0
64862;BME280;62652;42.274;-71.436;2023-01-28T04:18:00;101450.0;;;-1.2222222222222219;100.0
64862;BME280;62652;42.274;-71.436;2023-01-28T04:19:00;101450.0;;;-1.2222222222222219;100.0
64862;BME280;62652;42.274;-71.436;2023-01-28T04:20:00;101450.0;;;-1.2222222222222219;100.0
64862;BME280;62652;42.274;-71.436;2023-01-28T04:21:01;101450.0;;;-1.1111111111111112;100.0
64862;BME280;62652;42.274;-71.436;2023-01-28T04:22:01;101450.0;;;-1.2222222222222219;100.0
64862;BME280;62652;42.274;-71.436;2023-01-28T04:23:01;101450.0;;;-1.2222222222222219;100.0
64862;BME280;62652;42.274;-71.436;2023-01-28T04:24:01;101450.0;;;-1.2222222222222219;100.0
64862;BME280;62652;42.274;-71.436;2023-01-28T04:25:00;101450.0;;;-1.2222222222222219;100.0
64862;BME280;62652;42.274;-71.436;2023-01-28T04:26:00;101450.0;;;-1.2777777777777781;100.0